Terminal Aerodrome Forecast
Issued by NWS North Platte, NE

Home | Current Version | Previous Version | Text Only | Print | Product List | Glossary On
Versions: 1 2 3 4 5 6 7 8 9 10 11 12 13 14 15 16 17
853
FTUS43 KLBF 031120
TAFLBF
TAF
KLBF 031120Z 0312/0412 VRB03KT 3SM BR SCT003
      TEMPO 0312/0314 1/2SM FG BKN003
     FM031400 33008KT P6SM FEW250
     FM040200 VRB03KT P6SM SKC=

USA.gov is the U.S. government's official web portal to all federal, state and local government web resources and services.